Terminal Aerodrome Forecast
Issued by NWS Billings, MT

Home | Current Version | Previous Version | Graphics & Text | Print | Product List | Glossary On
Versions: 1 2 3 4 5 6 7 8 9 10 11 12 13 14 15 16 17 18 19 20 21 22 23 24 25 26 27 28 29 30 31 32 33 34
000
FTUS45 KBYZ 230533
TAFMLS
TAF
KMLS 230533Z 2306/2406 05015KT P6SM VCTS FEW030 FEW045 OVC060CB
     FM230900 06009KT 5SM -RA SCT008 BKN010 OVC020
     FM231200 17008KT P6SM -RA BKN015 OVC020
     FM231800 26015KT P6SM -RA BKN020 OVC030=

USA.gov is the U.S. government's official web portal to all federal, state and local government web resources and services.